TimeMDT,TemperatureF,Dew PointF,Humidity,Sea Level PressureIn,VisibilityMPH,Wind Direction,Wind SpeedMPH,Gust SpeedMPH,PrecipitationIn,Events,Conditions,WindDirDegrees,DateUTC
12:53 AM,59.0,37.0,44,29.85,10.0,North,10.4,-,N/A,,Clear,360,2012-09-05 06:53:00
1:53 AM,61.0,33.1,35,29.86,10.0,NNW,9.2,-,N/A,,Clear,340,2012-09-05 07:53:00
2:53 AM,59.0,32.0,36,29.89,10.0,NNW,10.4,-,N/A,,Clear,340,2012-09-05 08:53:00
3:53 AM,61.0,32.0,34,29.91,10.0,North,9.2,-,N/A,,Clear,350,2012-09-05 09:53:00
4:53 AM,57.0,35.1,44,29.94,10.0,NNW,12.7,-,N/A,,Clear,340,2012-09-05 10:53:00
5:53 AM,57.0,37.9,49,29.97,10.0,North,10.4,-,N/A,,Clear,350,2012-09-05 11:53:00
6:53 AM,57.0,37.9,49,30.01,10.0,North,8.1,-,N/A,,Clear,350,2012-09-05 12:53:00
7:53 AM,62.1,37.9,41,30.04,10.0,North,15.0,-,N/A,,Clear,350,2012-09-05 13:53:00
8:53 AM,66.0,37.9,36,30.06,10.0,North,17.3,23.0,N/A,,Clear,360,2012-09-05 14:53:00
9:53 AM,70.0,39.0,32,30.06,10.0,NNE,19.6,-,N/A,,Clear,20,2012-09-05 15:53:00
10:53 AM,73.9,39.0,28,30.06,10.0,NNE,11.5,19.6,N/A,,Clear,20,2012-09-05 16:53:00
11:53 AM,78.1,39.0,25,30.04,10.0,NNE,12.7,-,N/A,,Clear,30,2012-09-05 17:53:00
12:53 PM,80.1,37.9,22,30.02,10.0,North,5.8,17.3,N/A,,Clear,350,2012-09-05 18:53:00
1:53 PM,81.0,37.0,21,29.99,10.0,Calm,Calm,-,N/A,,Clear,0,2012-09-05 19:53:00
2:53 PM,82.9,36.0,19,29.98,10.0,SSE,6.9,-,N/A,,Clear,150,2012-09-05 20:53:00
3:53 PM,84.0,35.1,17,29.95,10.0,Variable,4.6,-,N/A,,Clear,0,2012-09-05 21:53:00
4:53 PM,84.9,35.1,17,29.94,10.0,ESE,9.2,-,N/A,,Clear,120,2012-09-05 22:53:00
5:53 PM,82.4,33.8,17,30.00,10.0,SE,6.9,-,N/A,,Clear,130,2012-09-05 23:53:00
6:53 PM,75.0,39.0,27,29.94,10.0,ESE,4.6,-,N/A,,Clear,110,2012-09-06 00:53:00
7:53 PM,64.9,39.9,40,29.95,10.0,ESE,8.1,-,N/A,,Clear,120,2012-09-06 01:53:00
8:53 PM,62.1,39.0,43,29.96,10.0,SE,8.1,-,N/A,,Clear,140,2012-09-06 02:53:00
9:53 PM,61.0,39.9,46,29.95,10.0,SSE,9.2,-,N/A,,Clear,150,2012-09-06 03:53:00
10:53 PM,60.1,41.0,49,29.96,10.0,SSE,6.9,-,N/A,,Clear,150,2012-09-06 04:53:00
11:53 PM,64.0,39.9,41,29.95,10.0,South,9.2,-,N/A,,Clear,170,2012-09-06 05:53:00